sensor_id;sensor_type;location;lat;lon;timestamp;pressure;altitude;pressure_sealevel;temperature;humidity
78582;BME280;67878;46.242;5.974;2024-03-06T00:01:29;95460.41;;;19.49;45.98
78582;BME280;67878;46.242;5.974;2024-03-06T00:03:55;95457.78;;;19.49;46.24
78582;BME280;67878;46.242;5.974;2024-03-06T00:06:20;95465.78;;;19.48;46.32
78582;BME280;67878;46.242;5.974;2024-03-06T00:08:45;95467.44;;;19.49;46.42
78582;BME280;67878;46.242;5.974;2024-03-06T00:11:11;95464.03;;;19.48;46.18
78582;BME280;67878;46.242;5.974;2024-03-06T00:13:36;95464.03;;;19.48;46.52
78582;BME280;67878;46.242;5.974;2024-03-06T00:16:02;95466.63;;;19.48;46.42
78582;BME280;67878;46.242;5.974;2024-03-06T00:18:27;95461.41;;;19.48;46.56
78582;BME280;67878;46.242;5.974;2024-03-06T00:20:53;95466.63;;;19.48;46.45
78582;BME280;67878;46.242;5.974;2024-03-06T00:23:19;95460.41;;;19.49;46.60
78582;BME280;67878;46.242;5.974;2024-03-06T00:25:44;95456.97;;;19.49;46.70
78582;BME280;67878;46.242;5.974;2024-03-06T00:28:10;95467.28;;;19.51;46.85
78582;BME280;67878;46.242;5.974;2024-03-06T00:30:35;95460.22;;;19.51;47.03
78582;BME280;67878;46.242;5.974;2024-03-06T00:33:01;95471.56;;;19.52;46.92
78582;BME280;67878;46.242;5.974;2024-03-06T00:35:26;95472.50;;;19.51;47.11
78582;BME280;67878;46.242;5.974;2024-03-06T00:37:53;95469.91;;;19.51;46.74
78582;BME280;67878;46.242;5.974;2024-03-06T00:40:19;95469.91;;;19.51;46.97
78582;BME280;67878;46.242;5.974;2024-03-06T00:42:44;95466.63;;;19.48;46.44
78582;BME280;67878;46.242;5.974;2024-03-06T00:45:10;95474.31;;;19.50;46.51
78582;BME280;67878;46.242;5.974;2024-03-06T00:47:36;95464.84;;;19.49;46.33
78582;BME280;67878;46.242;5.974;2024-03-06T00:50:02;95482.34;;;19.48;46.16
78582;BME280;67878;46.242;5.974;2024-03-06T00:52:27;95481.38;;;19.49;46.46
78582;BME280;67878;46.242;5.974;2024-03-06T00:54:52;95473.66;;;19.48;46.33
78582;BME280;67878;46.242;5.974;2024-03-06T00:57:18;95470.38;;;19.46;46.28
78582;BME280;67878;46.242;5.974;2024-03-06T00:59:43;95473.81;;;19.46;46.03
78582;BME280;67878;46.242;5.974;2024-03-06T01:02:08;95474.78;;;19.45;46.29
78582;BME280;67878;46.242;5.974;2024-03-06T01:04:34;95469.53;;;19.45;46.18
78582;BME280;67878;46.242;5.974;2024-03-06T01:06:59;95452.19;;;19.44;46.26
78582;BME280;67878;46.242;5.974;2024-03-06T01:09:25;95458.44;;;19.43;46.43
78582;BME280;67878;46.242;5.974;2024-03-06T01:11:50;95454.81;;;19.44;46.47
78582;BME280;67878;46.242;5.974;2024-03-06T01:14:16;95458.44;;;19.43;46.71
78582;BME280;67878;46.242;5.974;2024-03-06T01:16:41;95441.06;;;19.42;46.58
78582;BME280;67878;46.242;5.974;2024-03-06T01:19:07;95454.16;;;19.42;46.44
78582;BME280;67878;46.242;5.974;2024-03-06T01:21:32;95451.53;;;19.42;46.45
78582;BME280;67878;46.242;5.974;2024-03-06T01:24:00;95466.44;;;19.42;46.50
78582;BME280;67878;46.242;5.974;2024-03-06T01:26:25;95456.94;;;19.41;46.61
78582;BME280;67878;46.242;5.974;2024-03-06T01:28:51;95472.66;;;19.41;46.26
78582;BME280;67878;46.242;5.974;2024-03-06T01:31:17;95466.59;;;19.40;46.36
78582;BME280;67878;46.242;5.974;2024-03-06T01:33:42;95465.13;;;19.38;46.32
78582;BME280;67878;46.242;5.974;2024-03-06T01:36:07;95477.22;;;19.39;46.49
78582;BME280;67878;46.242;5.974;2024-03-06T01:38:33;95479.03;;;19.38;46.15
78582;BME280;67878;46.242;5.974;2024-03-06T01:40:58;95477.41;;;19.37;46.39
78582;BME280;67878;46.242;5.974;2024-03-06T01:43:25;95479.16;;;19.37;46.09
78582;BME280;67878;46.242;5.974;2024-03-06T01:45:51;95474.91;;;19.36;46.43
78582;BME280;67878;46.242;5.974;2024-03-06T01:48:26;95479.34;;;19.35;46.50
78582;BME280;67878;46.242;5.974;2024-03-06T01:50:55;95476.06;;;19.33;46.58
78582;BME280;67878;46.242;5.974;2024-03-06T01:53:22;95470.81;;;19.33;46.54
78582;BME280;67878;46.242;5.974;2024-03-06T01:55:49;95482.28;;;19.32;46.49
78582;BME280;67878;46.242;5.974;2024-03-06T01:58:16;95478.00;;;19.31;46.64
78582;BME280;67878;46.242;5.974;2024-03-06T02:00:42;95480.63;;;19.31;46.62
78582;BME280;67878;46.242;5.974;2024-03-06T02:03:08;95473.63;;;19.32;46.21
78582;BME280;67878;46.242;5.974;2024-03-06T02:05:34;95478.19;;;19.30;46.96
78582;BME280;67878;46.242;5.974;2024-03-06T02:07:59;95470.31;;;19.30;46.77
78582;BME280;67878;46.242;5.974;2024-03-06T02:10:26;95483.41;;;19.30;46.82
78582;BME280;67878;46.242;5.974;2024-03-06T02:12:53;95469.50;;;19.29;46.65
78582;BME280;67878;46.242;5.974;2024-03-06T02:15:19;95478.50;;;19.26;46.83
78582;BME280;67878;46.242;5.974;2024-03-06T02:17:45;95482.75;;;19.27;46.65
78582;BME280;67878;46.242;5.974;2024-03-06T02:20:11;95479.44;;;19.25;46.65
78582;BME280;67878;46.242;5.974;2024-03-06T02:22:42;95472.44;;;19.26;46.72
78582;BME280;67878;46.242;5.974;2024-03-06T02:25:07;95479.31;;;19.27;46.57
78582;BME280;67878;46.242;5.974;2024-03-06T02:27:33;95482.91;;;19.26;46.81
78582;BME280;67878;46.242;5.974;2024-03-06T02:29:58;95477.00;;;19.24;46.68
78582;BME280;67878;46.242;5.974;2024-03-06T02:32:24;95479.63;;;19.24;46.89
78582;BME280;67878;46.242;5.974;2024-03-06T02:34:50;95472.72;;;19.23;47.01
78582;BME280;67878;46.242;5.974;2024-03-06T02:37:16;95482.91;;;19.26;46.89
78582;BME280;67878;46.242;5.974;2024-03-06T02:39:41;95476.84;;;19.25;47.18
78582;BME280;67878;46.242;5.974;2024-03-06T02:42:06;95475.34;;;19.23;47.25
78582;BME280;67878;46.242;5.974;2024-03-06T02:44:32;95485.00;;;19.22;46.86
78582;BME280;67878;46.242;5.974;2024-03-06T02:46:58;95486.00;;;19.21;47.25
78582;BME280;67878;46.242;5.974;2024-03-06T02:49:24;95486.00;;;19.21;47.10
78582;BME280;67878;46.242;5.974;2024-03-06T02:51:50;95493.84;;;19.21;47.11
78582;BME280;67878;46.242;5.974;2024-03-06T02:54:15;95493.97;;;19.20;47.15
78582;BME280;67878;46.242;5.974;2024-03-06T02:56:41;95493.03;;;19.21;47.10
78582;BME280;67878;46.242;5.974;2024-03-06T02:59:07;95491.38;;;19.20;47.09
78582;BME280;67878;46.242;5.974;2024-03-06T03:01:32;95493.97;;;19.20;47.40
78582;BME280;67878;46.242;5.974;2024-03-06T03:03:58;95492.34;;;19.19;47.02
78582;BME280;67878;46.242;5.974;2024-03-06T03:06:23;95493.16;;;19.19;47.18
78582;BME280;67878;46.242;5.974;2024-03-06T03:08:51;95483.69;;;19.18;47.07
78582;BME280;67878;46.242;5.974;2024-03-06T03:11:17;95488.91;;;19.18;47.26
78582;BME280;67878;46.242;5.974;2024-03-06T03:13:43;95484.97;;;19.14;47.04
78582;BME280;67878;46.242;5.974;2024-03-06T03:16:18;95496.09;;;19.16;47.01
78582;BME280;67878;46.242;5.974;2024-03-06T03:18:44;95489.69;;;19.11;46.76
78582;BME280;67878;46.242;5.974;2024-03-06T03:21:09;95504.28;;;19.13;46.96
78582;BME280;67878;46.242;5.974;2024-03-06T03:23:38;95503.47;;;19.13;46.95
78582;BME280;67878;46.242;5.974;2024-03-06T03:26:05;95495.75;;;19.11;46.85
78582;BME280;67878;46.242;5.974;2024-03-06T03:28:30;95509.66;;;19.12;46.97
78582;BME280;67878;46.242;5.974;2024-03-06T03:30:56;95505.41;;;19.11;46.88
78582;BME280;67878;46.242;5.974;2024-03-06T03:33:22;95496.56;;;19.12;46.72
78582;BME280;67878;46.242;5.974;2024-03-06T03:35:48;95493.94;;;19.12;46.65
78582;BME280;67878;46.242;5.974;2024-03-06T03:38:13;95503.78;;;19.10;46.54
78582;BME280;67878;46.242;5.974;2024-03-06T03:40:39;95498.53;;;19.10;46.61
78582;BME280;67878;46.242;5.974;2024-03-06T03:43:04;95513.25;;;19.11;46.41
78582;BME280;67878;46.242;5.974;2024-03-06T03:45:35;95514.25;;;19.10;46.43
78582;BME280;67878;46.242;5.974;2024-03-06T03:48:04;95509.97;;;19.09;46.62
78582;BME280;67878;46.242;5.974;2024-03-06T03:50:29;95510.28;;;19.06;46.70
78582;BME280;67878;46.242;5.974;2024-03-06T03:52:55;95510.81;;;19.09;46.51
78582;BME280;67878;46.242;5.974;2024-03-06T03:55:24;95517.00;;;19.08;46.51
78582;BME280;67878;46.242;5.974;2024-03-06T03:57:50;95513.56;;;19.08;46.41
78582;BME280;67878;46.242;5.974;2024-03-06T04:00:15;95515.38;;;19.07;46.61
78582;BME280;67878;46.242;5.974;2024-03-06T04:02:42;95508.47;;;19.06;46.42
78582;BME280;67878;46.242;5.974;2024-03-06T04:05:07;95525.03;;;19.07;46.28
78582;BME280;67878;46.242;5.974;2024-03-06T04:07:33;95517.31;;;19.05;46.36
78582;BME280;67878;46.242;5.974;2024-03-06T04:09:58;95524.19;;;19.06;46.54
78582;BME280;67878;46.242;5.974;2024-03-06T04:12:24;95522.72;;;19.03;46.45
78582;BME280;67878;46.242;5.974;2024-03-06T04:14:50;95521.72;;;19.04;46.28
78582;BME280;67878;46.242;5.974;2024-03-06T04:17:15;95524.34;;;19.04;46.49
78582;BME280;67878;46.242;5.974;2024-03-06T04:19:40;95527.78;;;19.05;46.19
78582;BME280;67878;46.242;5.974;2024-03-06T04:22:06;95534.97;;;19.03;46.38
78582;BME280;67878;46.242;5.974;2024-03-06T04:24:31;95533.31;;;19.02;46.43
78582;BME280;67878;46.242;5.974;2024-03-06T04:26:56;95535.13;;;19.01;46.03
78582;BME280;67878;46.242;5.974;2024-03-06T04:29:22;95538.06;;;18.98;46.14
78582;BME280;67878;46.242;5.974;2024-03-06T04:31:47;95542.31;;;18.99;46.16
78582;BME280;67878;46.242;5.974;2024-03-06T04:34:13;95543.94;;;19.00;46.21
78582;BME280;67878;46.242;5.974;2024-03-06T04:36:38;95538.88;;;18.99;46.33
78582;BME280;67878;46.242;5.974;2024-03-06T04:39:03;95544.09;;;18.99;46.14
78582;BME280;67878;46.242;5.974;2024-03-06T04:41:33;95547.53;;;18.99;46.02
78582;BME280;67878;46.242;5.974;2024-03-06T04:43:58;95546.56;;;19.00;46.35
78582;BME280;67878;46.242;5.974;2024-03-06T04:46:26;95544.91;;;18.99;46.16
78582;BME280;67878;46.242;5.974;2024-03-06T04:48:51;95540.66;;;18.98;46.42
78582;BME280;67878;46.242;5.974;2024-03-06T04:51:17;95543.28;;;18.98;46.15
78582;BME280;67878;46.242;5.974;2024-03-06T04:53:45;95541.63;;;18.97;46.04
78582;BME280;67878;46.242;5.974;2024-03-06T04:56:10;95545.22;;;18.96;46.12
78582;BME280;67878;46.242;5.974;2024-03-06T04:58:36;95543.44;;;18.97;46.17
78582;BME280;67878;46.242;5.974;2024-03-06T05:01:01;95543.44;;;18.97;46.08
78582;BME280;67878;46.242;5.974;2024-03-06T05:03:29;95549.78;;;18.94;45.88
78582;BME280;67878;46.242;5.974;2024-03-06T05:05:55;95553.91;;;18.97;45.84
78582;BME280;67878;46.242;5.974;2024-03-06T05:08:20;95556.38;;;18.98;45.89
78582;BME280;67878;46.242;5.974;2024-03-06T05:10:46;95561.31;;;19.01;45.91
78582;BME280;67878;46.242;5.974;2024-03-06T05:13:11;95566.53;;;19.01;45.89
78582;BME280;67878;46.242;5.974;2024-03-06T05:15:38;95569.16;;;19.01;46.10
78582;BME280;67878;46.242;5.974;2024-03-06T05:18:05;95568.34;;;19.01;45.99
78582;BME280;67878;46.242;5.974;2024-03-06T05:20:30;95569.16;;;19.01;46.03
78582;BME280;67878;46.242;5.974;2024-03-06T05:22:59;95572.59;;;19.02;45.87
78582;BME280;67878;46.242;5.974;2024-03-06T05:25:24;95575.34;;;19.00;45.86
78582;BME280;67878;46.242;5.974;2024-03-06T05:27:50;95585.69;;;19.02;45.67
78582;BME280;67878;46.242;5.974;2024-03-06T05:30:15;95584.03;;;19.01;45.53
78582;BME280;67878;46.242;5.974;2024-03-06T05:32:40;95584.84;;;19.01;45.73
78582;BME280;67878;46.242;5.974;2024-03-06T05:35:07;95591.91;;;19.01;45.59
78582;BME280;67878;46.242;5.974;2024-03-06T05:37:35;95588.97;;;19.04;45.47
78582;BME280;67878;46.242;5.974;2024-03-06T05:40:01;95586.34;;;19.04;45.02
78582;BME280;67878;46.242;5.974;2024-03-06T05:42:30;95590.59;;;19.05;45.22
78582;BME280;67878;46.242;5.974;2024-03-06T05:44:56;95598.44;;;19.05;45.49
78582;BME280;67878;46.242;5.974;2024-03-06T05:47:26;95594.84;;;19.06;45.39
78582;BME280;67878;46.242;5.974;2024-03-06T05:49:52;95602.69;;;19.06;45.80
78582;BME280;67878;46.242;5.974;2024-03-06T05:52:17;95610.56;;;19.06;45.64
78582;BME280;67878;46.242;5.974;2024-03-06T05:54:43;95607.13;;;19.06;45.88
78582;BME280;67878;46.242;5.974;2024-03-06T05:57:08;95605.31;;;19.06;45.51
78582;BME280;67878;46.242;5.974;2024-03-06T05:59:34;95607.81;;;19.08;45.49
78582;BME280;67878;46.242;5.974;2024-03-06T06:01:59;95614.03;;;19.07;45.38
78582;BME280;67878;46.242;5.974;2024-03-06T06:04:25;95607.13;;;19.06;45.52
78582;BME280;67878;46.242;5.974;2024-03-06T06:06:50;95613.34;;;19.04;45.37
78582;BME280;67878;46.242;5.974;2024-03-06T06:09:16;95616.47;;;19.08;45.68
78582;BME280;67878;46.242;5.974;2024-03-06T06:11:43;95615.16;;;19.04;46.05
78582;BME280;67878;46.242;5.974;2024-03-06T06:14:08;95619.25;;;19.07;46.21
78582;BME280;67878;46.242;5.974;2024-03-06T06:16:35;95628.75;;;19.08;46.25
78582;BME280;67878;46.242;5.974;2024-03-06T06:19:01;95623.13;;;19.02;46.20
78582;BME280;67878;46.242;5.974;2024-03-06T06:21:26;95627.25;;;19.05;46.34
78582;BME280;67878;46.242;5.974;2024-03-06T06:23:52;95626.44;;;19.04;46.36
78582;BME280;67878;46.242;5.974;2024-03-06T06:26:17;95621.81;;;18.98;46.48
78582;BME280;67878;46.242;5.974;2024-03-06T06:28:43;95632.66;;;19.03;46.47
78582;BME280;67878;46.242;5.974;2024-03-06T06:31:10;95630.84;;;19.04;46.65
78582;BME280;67878;46.242;5.974;2024-03-06T06:33:36;95637.88;;;19.03;46.67
78582;BME280;67878;46.242;5.974;2024-03-06T06:36:01;95634.97;;;19.07;46.56
78582;BME280;67878;46.242;5.974;2024-03-06T06:38:26;95633.16;;;19.07;46.61
78582;BME280;67878;46.242;5.974;2024-03-06T06:40:52;95634.66;;;19.10;46.89
78582;BME280;67878;46.242;5.974;2024-03-06T06:43:17;95635.47;;;19.10;46.98
78582;BME280;67878;46.242;5.974;2024-03-06T06:45:43;95641.53;;;19.11;46.85
78582;BME280;67878;46.242;5.974;2024-03-06T06:48:08;95641.69;;;19.09;46.43
78582;BME280;67878;46.242;5.974;2024-03-06T06:50:37;95644.31;;;19.09;46.19
78582;BME280;67878;46.242;5.974;2024-03-06T06:53:02;95641.16;;;19.06;46.15
78582;BME280;67878;46.242;5.974;2024-03-06T06:55:27;95639.06;;;19.09;46.05
78582;BME280;67878;46.242;5.974;2024-03-06T06:57:53;95645.25;;;19.08;46.03
78582;BME280;67878;46.242;5.974;2024-03-06T07:00:19;95647.75;;;19.10;45.83
78582;BME280;67878;46.242;5.974;2024-03-06T07:02:47;95646.94;;;19.09;45.89
78582;BME280;67878;46.242;5.974;2024-03-06T07:05:18;95643.47;;;19.09;45.54
78582;BME280;67878;46.242;5.974;2024-03-06T07:07:44;95646.09;;;19.09;45.45
78582;BME280;67878;46.242;5.974;2024-03-06T07:10:10;95646.09;;;19.09;45.47
78582;BME280;67878;46.242;5.974;2024-03-06T07:12:38;95648.69;;;19.09;45.22
78582;BME280;67878;46.242;5.974;2024-03-06T07:15:06;95648.06;;;19.07;45.29
78582;BME280;67878;46.242;5.974;2024-03-06T07:17:32;95644.44;;;19.08;45.07
78582;BME280;67878;46.242;5.974;2024-03-06T07:19:57;95643.63;;;19.07;45.62
78582;BME280;67878;46.242;5.974;2024-03-06T07:22:23;95663.59;;;19.08;45.22
78582;BME280;67878;46.242;5.974;2024-03-06T07:24:49;95662.78;;;19.08;45.48
78582;BME280;67878;46.242;5.974;2024-03-06T07:27:14;95666.38;;;19.07;44.88
78582;BME280;67878;46.242;5.974;2024-03-06T07:29:39;95661.97;;;19.07;45.23
78582;BME280;67878;46.242;5.974;2024-03-06T07:32:05;95661.13;;;19.07;45.05
78582;BME280;67878;46.242;5.974;2024-03-06T07:34:31;95673.25;;;19.08;45.15
78582;BME280;67878;46.242;5.974;2024-03-06T07:36:57;95669.94;;;19.06;45.03
78582;BME280;67878;46.242;5.974;2024-03-06T07:39:25;95670.75;;;19.06;45.04
78582;BME280;67878;46.242;5.974;2024-03-06T07:41:50;95666.38;;;19.07;44.86
78582;BME280;67878;46.242;5.974;2024-03-06T07:44:16;95673.25;;;19.08;45.11
78582;BME280;67878;46.242;5.974;2024-03-06T07:46:41;95675.88;;;19.08;45.10
78582;BME280;67878;46.242;5.974;2024-03-06T07:49:07;95674.88;;;19.09;44.92
78582;BME280;67878;46.242;5.974;2024-03-06T07:51:33;95671.44;;;19.08;44.75
78582;BME280;67878;46.242;5.974;2024-03-06T07:53:59;95677.34;;;19.10;44.89
78582;BME280;67878;46.242;5.974;2024-03-06T07:56:25;95679.28;;;19.08;44.91
78582;BME280;67878;46.242;5.974;2024-03-06T07:58:51;95681.09;;;19.08;44.70
78582;BME280;67878;46.242;5.974;2024-03-06T08:01:17;95681.91;;;19.08;44.69
78582;BME280;67878;46.242;5.974;2024-03-06T08:03:43;95679.28;;;19.08;44.35
78582;BME280;67878;46.242;5.974;2024-03-06T08:06:09;95681.09;;;19.08;44.58
78582;BME280;67878;46.242;5.974;2024-03-06T08:08:36;95688.13;;;19.07;44.65
78582;BME280;67878;46.242;5.974;2024-03-06T08:11:02;95682.09;;;19.07;44.34
78582;BME280;67878;46.242;5.974;2024-03-06T08:13:27;95685.66;;;19.06;44.55
78582;BME280;67878;46.242;5.974;2024-03-06T08:15:53;95678.63;;;19.06;44.30
78582;BME280;67878;46.242;5.974;2024-03-06T08:18:18;95688.28;;;19.06;44.27
78582;BME280;67878;46.242;5.974;2024-03-06T08:20:44;95687.44;;;19.05;44.35
78582;BME280;67878;46.242;5.974;2024-03-06T08:23:09;95690.88;;;19.06;44.06
78582;BME280;67878;46.242;5.974;2024-03-06T08:25:38;95684.03;;;19.04;43.97
78582;BME280;67878;46.242;5.974;2024-03-06T08:28:04;95683.19;;;19.04;44.04
78582;BME280;67878;46.242;5.974;2024-03-06T08:30:30;95688.44;;;19.04;43.96
78582;BME280;67878;46.242;5.974;2024-03-06T08:32:56;95685.00;;;19.03;44.00
78582;BME280;67878;46.242;5.974;2024-03-06T08:35:22;95695.47;;;19.03;44.03
78582;BME280;67878;46.242;5.974;2024-03-06T08:37:49;95679.91;;;19.02;44.00
78582;BME280;67878;46.242;5.974;2024-03-06T08:40:14;95689.38;;;19.03;44.07
78582;BME280;67878;46.242;5.974;2024-03-06T08:42:41;95692.84;;;19.03;44.26
78582;BME280;67878;46.242;5.974;2024-03-06T08:45:07;95691.19;;;19.02;44.14
78582;BME280;67878;46.242;5.974;2024-03-06T08:47:33;95689.56;;;19.01;43.94
78582;BME280;67878;46.242;5.974;2024-03-06T08:49:59;95694.78;;;19.01;43.78
78582;BME280;67878;46.242;5.974;2024-03-06T08:52:24;95691.34;;;19.01;43.73
78582;BME280;67878;46.242;5.974;2024-03-06T08:54:50;95692.31;;;19.00;43.72
78582;BME280;67878;46.242;5.974;2024-03-06T08:57:15;95689.69;;;19.00;43.79
78582;BME280;67878;46.242;5.974;2024-03-06T08:59:44;95690.50;;;19.00;43.22
78582;BME280;67878;46.242;5.974;2024-03-06T09:02:13;95700.03;;;19.01;43.38
78582;BME280;67878;46.242;5.974;2024-03-06T09:04:40;95700.84;;;19.02;42.94
78582;BME280;67878;46.242;5.974;2024-03-06T09:07:06;95700.03;;;19.01;43.58
78582;BME280;67878;46.242;5.974;2024-03-06T09:09:31;95694.94;;;19.00;43.52
78582;BME280;67878;46.242;5.974;2024-03-06T09:12:02;95706.38;;;18.99;43.45
78582;BME280;67878;46.242;5.974;2024-03-06T09:14:33;95706.09;;;19.02;43.32
78582;BME280;67878;46.242;5.974;2024-03-06T09:16:58;95704.59;;;18.99;43.33
78582;BME280;67878;46.242;5.974;2024-03-06T09:19:25;95696.72;;;18.99;43.27
78582;BME280;67878;46.242;5.974;2024-03-06T09:21:51;95702.78;;;19.00;43.23
78582;BME280;67878;46.242;5.974;2024-03-06T09:24:17;95707.19;;;18.99;43.11
78582;BME280;67878;46.242;5.974;2024-03-06T09:26:43;95703.59;;;19.00;43.11
78582;BME280;67878;46.242;5.974;2024-03-06T09:29:09;95706.09;;;19.02;42.82
78582;BME280;67878;46.242;5.974;2024-03-06T09:31:35;95707.72;;;19.03;43.15
78582;BME280;67878;46.242;5.974;2024-03-06T09:34:00;95710.31;;;19.03;42.90
78582;BME280;67878;46.242;5.974;2024-03-06T09:36:27;95707.72;;;19.03;42.77
78582;BME280;67878;46.242;5.974;2024-03-06T09:38:52;95708.56;;;19.03;42.61
78582;BME280;67878;46.242;5.974;2024-03-06T09:41:18;95703.31;;;19.03;42.63
78582;BME280;67878;46.242;5.974;2024-03-06T09:43:44;95704.97;;;19.04;42.74
78582;BME280;67878;46.242;5.974;2024-03-06T09:46:10;95713.50;;;19.07;42.57
78582;BME280;67878;46.242;5.974;2024-03-06T09:48:36;95707.28;;;19.08;42.24
78582;BME280;67878;46.242;5.974;2024-03-06T09:51:07;95709.06;;;19.07;42.45
78582;BME280;67878;46.242;5.974;2024-03-06T09:53:32;95713.31;;;19.08;41.86
78582;BME280;67878;46.242;5.974;2024-03-06T09:55:59;95715.13;;;19.08;42.30
78582;BME280;67878;46.242;5.974;2024-03-06T09:58:25;95715.94;;;19.08;41.94
78582;BME280;67878;46.242;5.974;2024-03-06T10:00:51;95716.75;;;19.09;41.69
78582;BME280;67878;46.242;5.974;2024-03-06T10:03:18;95716.63;;;19.10;41.86
78582;BME280;67878;46.242;5.974;2024-03-06T10:05:43;95709.59;;;19.11;42.01
78582;BME280;67878;46.242;5.974;2024-03-06T10:08:09;95714.81;;;19.11;41.84
78582;BME280;67878;46.242;5.974;2024-03-06T10:10:35;95710.41;;;19.11;41.85
78582;BME280;67878;46.242;5.974;2024-03-06T10:13:02;95711.22;;;19.12;41.77
78582;BME280;67878;46.242;5.974;2024-03-06T10:15:27;95718.13;;;19.13;41.82
78582;BME280;67878;46.242;5.974;2024-03-06T10:18:13;95707.66;;;19.13;41.89
78582;BME280;67878;46.242;5.974;2024-03-06T10:20:42;95712.72;;;19.14;41.99
78582;BME280;67878;46.242;5.974;2024-03-06T10:23:09;95712.72;;;19.14;41.93
78582;BME280;67878;46.242;5.974;2024-03-06T10:25:35;95717.13;;;19.14;42.08
78582;BME280;67878;46.242;5.974;2024-03-06T10:28:11;95713.56;;;19.15;41.40
78582;BME280;67878;46.242;5.974;2024-03-06T10:30:38;95723.19;;;19.14;41.42
78582;BME280;67878;46.242;5.974;2024-03-06T10:33:07;95710.28;;;19.13;42.01
78582;BME280;67878;46.242;5.974;2024-03-06T10:35:34;95717.00;;;19.15;41.97
78582;BME280;67878;46.242;5.974;2024-03-06T10:38:00;95722.25;;;19.15;41.85
78582;BME280;67878;46.242;5.974;2024-03-06T10:40:26;95714.38;;;19.15;42.00
78582;BME280;67878;46.242;5.974;2024-03-06T10:42:55;95715.19;;;19.16;42.18
78582;BME280;67878;46.242;5.974;2024-03-06T10:45:23;95712.59;;;19.16;41.88
78582;BME280;67878;46.242;5.974;2024-03-06T10:47:53;95702.78;;;19.18;42.09
78582;BME280;67878;46.242;5.974;2024-03-06T10:50:19;95707.03;;;19.19;42.32
78582;BME280;67878;46.242;5.974;2024-03-06T10:52:46;95701.81;;;19.19;42.08
78582;BME280;67878;46.242;5.974;2024-03-06T10:55:12;95702.78;;;19.18;41.84
78582;BME280;67878;46.242;5.974;2024-03-06T10:57:39;95701.81;;;19.19;41.69
78582;BME280;67878;46.242;5.974;2024-03-06T11:00:08;95707.03;;;19.19;41.75
78582;BME280;67878;46.242;5.974;2024-03-06T11:02:33;95697.56;;;19.18;41.22
78582;BME280;67878;46.242;5.974;2024-03-06T11:05:02;95702.63;;;19.19;41.61
78582;BME280;67878;46.242;5.974;2024-03-06T11:07:30;95700.00;;;19.19;41.71
78582;BME280;67878;46.242;5.974;2024-03-06T11:09:58;95697.38;;;19.19;41.77
78582;BME280;67878;46.242;5.974;2024-03-06T11:12:37;95702.50;;;19.21;41.18
78582;BME280;67878;46.242;5.974;2024-03-06T11:17:36;95703.44;;;19.20;41.97
78582;BME280;67878;46.242;5.974;2024-03-06T11:28:16;95711.97;;;19.22;41.55
78582;BME280;67878;46.242;5.974;2024-03-06T11:33:19;95711.16;;;19.21;41.68
78582;BME280;67878;46.242;5.974;2024-03-06T11:38:52;95712.78;;;19.22;40.92
78582;BME280;67878;46.242;5.974;2024-03-06T11:41:28;95707.56;;;19.22;40.10
78582;BME280;67878;46.242;5.974;2024-03-06T11:43:59;95700.69;;;19.21;40.77
78582;BME280;67878;46.242;5.974;2024-03-06T11:46:45;95704.28;;;19.20;39.63
78582;BME280;67878;46.242;5.974;2024-03-06T11:49:17;95698.22;;;19.20;40.03
78582;BME280;67878;46.242;5.974;2024-03-06T11:51:48;95692.97;;;19.20;40.73
78582;BME280;67878;46.242;5.974;2024-03-06T11:54:14;95694.78;;;19.19;39.87
78582;BME280;67878;46.242;5.974;2024-03-06T11:56:40;95700.81;;;19.20;40.88
78582;BME280;67878;46.242;5.974;2024-03-06T11:59:06;95696.56;;;19.19;40.56
78582;BME280;67878;46.242;5.974;2024-03-06T12:01:35;95687.09;;;19.18;40.49
78582;BME280;67878;46.242;5.974;2024-03-06T12:04:02;95684.47;;;19.18;40.52
78582;BME280;67878;46.242;5.974;2024-03-06T12:06:28;95681.69;;;19.19;40.60
78582;BME280;67878;46.242;5.974;2024-03-06T12:08:53;95682.81;;;19.17;40.17
78582;BME280;67878;46.242;5.974;2024-03-06T12:11:19;95690.34;;;19.20;40.29
78582;BME280;67878;46.242;5.974;2024-03-06T12:13:46;95683.34;;;19.20;40.15
78582;BME280;67878;46.242;5.974;2024-03-06T12:16:14;95680.88;;;19.19;39.17
78582;BME280;67878;46.242;5.974;2024-03-06T12:18:40;95682.34;;;19.21;39.75
78582;BME280;67878;46.242;5.974;2024-03-06T12:21:05;95668.44;;;19.21;39.74
78582;BME280;67878;46.242;5.974;2024-03-06T12:23:31;95672.69;;;19.22;40.08
78582;BME280;67878;46.242;5.974;2024-03-06T12:26:06;95668.28;;;19.22;39.32
78582;BME280;67878;46.242;5.974;2024-03-06T12:28:34;95666.47;;;19.23;39.94
78582;BME280;67878;46.242;5.974;2024-03-06T12:31:04;95662.91;;;19.24;39.93
78582;BME280;67878;46.242;5.974;2024-03-06T12:33:31;95668.16;;;19.24;40.29
78582;BME280;67878;46.242;5.974;2024-03-06T12:36:04;95662.75;;;19.25;39.76
78582;BME280;67878;46.242;5.974;2024-03-06T12:38:30;95660.13;;;19.25;40.10
78582;BME280;67878;46.242;5.974;2024-03-06T12:40:55;95662.75;;;19.25;40.27
78582;BME280;67878;46.242;5.974;2024-03-06T12:43:21;95657.50;;;19.25;40.33
78582;BME280;67878;46.242;5.974;2024-03-06T12:45:47;95652.13;;;19.27;40.70
78582;BME280;67878;46.242;5.974;2024-03-06T12:48:12;95654.75;;;19.27;40.52
78582;BME280;67878;46.242;5.974;2024-03-06T12:50:38;95656.38;;;19.28;40.77
78582;BME280;67878;46.242;5.974;2024-03-06T12:53:03;95663.28;;;19.29;40.83
78582;BME280;67878;46.242;5.974;2024-03-06T12:55:30;95659.00;;;19.28;40.85
78582;BME280;67878;46.242;5.974;2024-03-06T12:57:57;95656.25;;;19.30;40.45
78582;BME280;67878;46.242;5.974;2024-03-06T13:00:22;95653.63;;;19.30;40.74
78582;BME280;67878;46.242;5.974;2024-03-06T13:02:49;95648.38;;;19.30;40.52
78582;BME280;67878;46.242;5.974;2024-03-06T13:05:18;95657.88;;;19.31;40.88
78582;BME280;67878;46.242;5.974;2024-03-06T13:07:44;95656.06;;;19.31;40.81
78582;BME280;67878;46.242;5.974;2024-03-06T13:10:10;95649.19;;;19.30;40.59
78582;BME280;67878;46.242;5.974;2024-03-06T13:12:39;95654.31;;;19.32;40.44